Flight Track Log - Related Links

Times and Time Zones

All times are in EDT time to prevent confusion due to time zone crossing. See the SKW5207 flight status page for this flight to view local times or setup timezone preferences in your user account.

Time Position Orientation Groundspeed Altitude Reporting Facility
EDT Latitude Longitude Course Direction KTS MPH feet Rate Location/Type
Wed 11:00:53 PM 30.2139 -97.0006 297° West 417 480 25,000  Level Houston Center
Wed 11:01:54 PM 30.2694 -97.1258 297° West 424 488 25,600 793 Climbing Houston Center
Wed 11:02:54 PM 30.3269 -97.2542 297° West 444 511 26,600 1,008 Climbing Houston Center
Wed 11:03:53 PM 30.3842 -97.3822 298° West 450 518 27,600 1,059 Climbing Houston Center
Wed 11:04:53 PM 30.4414 -97.5058 297° West 445 512 28,700 950 Climbing Houston Center
Wed 11:05:53 PM 30.4906 -97.6194 297° West 439 505 29,500 900 Climbing Houston Center
Wed 11:06:53 PM 30.5456 -97.7431 298° West 439 505 30,500 1,041 Climbing Houston Center
Wed 11:07:54 PM 30.6025 -97.8672 297° West 439 505 31,600 1,041 Climbing Houston Center
Wed 11:08:54 PM 30.6553 -97.9886 296° West 433 498 32,600 1,000 Climbing Houston Center
Wed 11:09:54 PM 30.7078 -98.1125 298° West 433 498 33,600 1,000 Climbing Houston Center
Wed 11:10:54 PM 30.7661 -98.2419 298° West 427 491 34,600 1,008 Climbing Houston Center
Wed 11:11:53 PM 30.8189 -98.3589 296° West 420 483 35,600 1,059 Climbing Houston Center
Wed 11:12:53 PM 30.8672 -98.4756 297° West 415 478 36,700 1,050 Climbing Houston Center
Wed 11:13:53 PM 30.9194 -98.5928 297° West 410 472 37,700 645 Climbing Houston Center
Wed 11:14:54 PM 30.9681 -98.7050 298° West 400 460 38,000 149 Climbing Houston Center
Wed 11:15:54 PM 31.0183 -98.8175 297° West 400 460 38,000  Level Houston Center
Wed 11:16:53 PM 31.0703 -98.9350 297° West 400 460 38,000  Level Houston Center
Wed 11:17:53 PM 31.1203 -99.0500 296° West 400 460 38,000  Level Houston Center
Wed 11:18:54 PM 31.1664 -99.1603 297° West 405 466 38,000  Level Houston Center
Wed 11:20:58 PM 31.2728 -99.4039 296° West 406 467 38,000  Level Fort Worth Center
Wed 11:21:58 PM 31.3228 -99.5242 297° West 411 473 38,000  Level Fort Worth Center
Wed 11:22:58 PM 31.3769 -99.6494 295° West 411 473 38,000  Level Fort Worth Center
Wed 11:23:58 PM 31.4231 -99.7675 298° West 409 471 38,000  Level Fort Worth Center
Wed 11:24:58 PM 31.4769 -99.8881 296° West 409 471 38,000  Level Fort Worth Center
Wed 11:25:58 PM 31.5308 -100.0164 297° West 414 476 38,000  Level Fort Worth Center
Wed 11:26:58 PM 31.5825 -100.1372 295° West 423 487 38,000  Level Fort Worth Center
Wed 11:27:58 PM 31.6339 -100.2656 295° West 430 495 38,000  Level Fort Worth Center
Wed 11:28:58 PM 31.6833 -100.3917 296° West 430 495 38,000  Level Fort Worth Center
Wed 11:29:58 PM 31.7364 -100.5181 297° West 430 495 38,000 -50 Level Fort Worth Center
Wed 11:30:58 PM 31.7956 -100.6544 296° West 430 495 37,900  Descending Fort Worth Center
Wed 11:31:58 PM 31.8447 -100.7736 297° West 430 495 38,000 50 Climbing Fort Worth Center
Wed 11:32:58 PM 31.9017 -100.9028 295° West 430 495 38,000  Level Fort Worth Center
Wed 11:33:58 PM 31.9525 -101.0297 295° West 430 495 38,000  Level Fort Worth Center
Wed 11:34:58 PM 32.0031 -101.1564 296° West 430 495 38,000  Level Fort Worth Center
Wed 11:35:58 PM 32.0536 -101.2786 296° West 430 495 38,000  Level Fort Worth Center
Wed 11:36:58 PM 32.1058 -101.4058 295° West 430 495 38,000  Level Fort Worth Center
Wed 11:37:58 PM 32.1542 -101.5308 293° West 430 495 38,000  Level Fort Worth Center
Wed 11:38:58 PM 32.2000 -101.6606 296° West 420 483 38,000  Level Fort Worth Center
Wed 11:39:58 PM 32.2519 -101.7881 295° West 420 483 38,000  Level Fort Worth Center
Wed 11:40:58 PM 32.3017 -101.9136 296° West 428 493 38,000  Level Fort Worth Center
Wed 11:41:58 PM 32.3533 -102.0414 295° West 428 493 38,000  Level Fort Worth Center
Wed 11:42:58 PM 32.4028 -102.1694 296° West 428 493 38,000  Level Fort Worth Center
Wed 11:43:58 PM 32.4583 -102.3028 295° West 433 498 38,000  Level Fort Worth Center
Wed 11:44:58 PM 32.5097 -102.4311 294° West 438 504 38,000  Level Fort Worth Center
Wed 11:45:58 PM 32.5622 -102.5744 297° West 433 498 38,000  Level Fort Worth Center
Wed 11:46:58 PM 32.6097 -102.6858 294° West 427 491 38,000  Level Fort Worth Center
Wed 11:47:58 PM 32.6586 -102.8144 295° West 427 491 38,000  Level Fort Worth Center
Wed 11:48:58 PM 32.7092 -102.9458 294° West 440 506 38,000  Level Fort Worth Center
Wed 11:50:30 PM 32.7811 -103.1417 296° West 426 490 38,000  Level Albuquerque Center
Wed 11:51:29 PM 32.8336 -103.2675 294° West 426 490 38,000  Level Albuquerque Center
Wed 11:52:29 PM 32.8817 -103.3939 296° West 421 484 38,000  Level Albuquerque Center
Wed 11:53:29 PM 32.9314 -103.5175 294° West 421 484 38,000  Level Albuquerque Center
Wed 11:54:29 PM 32.9794 -103.6467 294° West 421 484 38,000  Level Albuquerque Center
Wed 11:55:29 PM 33.0294 -103.7831 291° West 421 484 38,000  Level Albuquerque Center
Wed 11:56:29 PM 33.0731 -103.9175 303° West 428 493 38,000  Level Albuquerque Center
Wed 11:57:29 PM 33.1389 -104.0364 312° West 434 499 38,000  Level Albuquerque Center
Wed 11:58:29 PM 33.2233 -104.1472 313° West 445 512 38,000  Level Albuquerque Center
Wed 11:59:29 PM 33.3011 -104.2461 313° West 455 524 38,000  Level Albuquerque Center
Thu 12:00:29 AM 33.3936 -104.3644 313° West 450 518 38,000  Level Albuquerque Center
Thu 12:01:29 AM 33.4733 -104.4661 309° West 457 526 38,000  Level Albuquerque Center
Thu 12:02:29 AM 33.5533 -104.5831 312° West 457 526 38,000  Level Albuquerque Center
Thu 12:03:29 AM 33.6458 -104.7072 312° West 456 525 38,000  Level Albuquerque Center
Thu 12:04:29 AM 33.7189 -104.8047 312° West 451 519 38,000  Level Albuquerque Center
Thu 12:05:29 AM 33.8133 -104.9292 312° West 451 519 38,000  Level Albuquerque Center
Thu 12:06:29 AM 33.8883 -105.0297 312° West 455 524 38,000 -250 Level Albuquerque Center
Thu 12:07:29 AM 33.9825 -105.1547 310° West 455 524 37,500 -700 Descending Albuquerque Center
Thu 12:08:29 AM 34.0553 -105.2581 311° West 455 524 36,600 -950 Descending Albuquerque Center
Thu 12:09:29 AM 34.1472 -105.3864 309° West 455 524 35,600 -1,000 Descending Albuquerque Center
Thu 12:10:29 AM 34.2286 -105.5100 307° West 460 529 34,600 -1,050 Descending Albuquerque Center
Thu 12:11:29 AM 34.3033 -105.6289 307° West 466 536 33,500 -1,450 Descending Albuquerque Center
Thu 12:12:29 AM 34.3864 -105.7606 307° West 466 536 31,700 -2,450 Descending Albuquerque Center
Thu 12:13:29 AM 34.4611 -105.8825 309° West 466 536 28,600 -3,050 Descending Albuquerque Center
Thu 12:14:29 AM 34.5419 -106.0022 304° West 468 539 25,600 -3,000 Descending Albuquerque Center
Thu 12:15:21 AM 34.5992 -106.1072 308° West 443 510 23,000 -2,973 Descending Albuquerque Center
Thu 12:16:22 AM 34.6778 -106.2297 307° West 450 518 20,000 -2,852 Descending Albuquerque Center
Thu 12:17:23 AM 34.7475 -106.3425 301° West 432 497 17,200 -2,430 Descending Albuquerque Center
Thu 12:18:23 AM 34.8028 -106.4556 304° West 372 428 15,100 -2,628 Descending Albuquerque Center
Thu 12:19:24 AM 34.8597 -106.5589 304° West 359 413 11,900 -2,579 Descending Albuquerque Center
Thu 12:20:24 AM 34.9125 -106.6544 304° West 333 383 9,900 -1,438 Descending Albuquerque Center
Thu 12:21:25 AM 34.9506 -106.7225 45° Northeast 228 262 9,000 -1,279 Descending Albuquerque Center
Thu 12:22:26 AM 34.9836 -106.6817 49° Northeast 184 212 7,300 -1,736 Descending Albuquerque Center
Thu 12:23:26 AM 35.0147 -106.6383 49° Northeast 164 189 5,500 -1,800 Descending Albuquerque Center

Login

Don't have an account? Register now (free) for customized features, flight alerts, and more!